sensor_id;sensor_type;location;lat;lon;timestamp;pressure;altitude;pressure_sealevel;temperature;humidity
23677;BME280;31493;49.058;12.190;2023-04-07T00:01:16;96083.16;;;3.60;51.14
23677;BME280;31493;49.058;12.190;2023-04-07T00:03:43;96094.59;;;3.52;51.51
23677;BME280;31493;49.058;12.190;2023-04-07T00:06:10;96086.97;;;3.50;52.37
23677;BME280;31493;49.058;12.190;2023-04-07T00:08:39;96087.25;;;3.42;52.61
23677;BME280;31493;49.058;12.190;2023-04-07T00:11:06;96091.75;;;3.15;53.89
23677;BME280;31493;49.058;12.190;2023-04-07T00:13:33;96087.09;;;3.03;54.30
23677;BME280;31493;49.058;12.190;2023-04-07T00:16:00;96086.13;;;2.60;55.29
23677;BME280;31493;49.058;12.190;2023-04-07T00:18:27;96082.41;;;2.21;57.33
23677;BME280;31493;49.058;12.190;2023-04-07T00:20:54;96087.22;;;2.05;58.72
23677;BME280;31493;49.058;12.190;2023-04-07T00:23:22;96084.13;;;1.95;59.13
23677;BME280;31493;49.058;12.190;2023-04-07T00:25:50;96076.38;;;1.98;59.76
23677;BME280;31493;49.058;12.190;2023-04-07T00:28:17;96073.69;;;2.26;60.19
23677;BME280;31493;49.058;12.190;2023-04-07T00:30:44;96074.38;;;2.31;59.05
23677;BME280;31493;49.058;12.190;2023-04-07T00:33:11;96076.66;;;2.39;58.63
23677;BME280;31493;49.058;12.190;2023-04-07T00:35:38;96074.44;;;2.30;58.79
23677;BME280;31493;49.058;12.190;2023-04-07T00:38:05;96071.16;;;2.50;57.81
23677;BME280;31493;49.058;12.190;2023-04-07T00:40:33;96069.66;;;2.44;58.50
23677;BME280;31493;49.058;12.190;2023-04-07T00:43:01;96077.78;;;2.79;57.02
23677;BME280;31493;49.058;12.190;2023-04-07T00:45:28;96071.66;;;2.83;54.96
23677;BME280;31493;49.058;12.190;2023-04-07T00:47:56;96065.22;;;2.73;57.28
23677;BME280;31493;49.058;12.190;2023-04-07T00:50:23;96062.44;;;2.79;57.53
23677;BME280;31493;49.058;12.190;2023-04-07T00:52:52;96070.00;;;2.58;56.91
23677;BME280;31493;49.058;12.190;2023-04-07T00:55:19;96058.03;;;2.82;55.91
23677;BME280;31493;49.058;12.190;2023-04-07T00:57:46;96058.22;;;2.78;56.08
23677;BME280;31493;49.058;12.190;2023-04-07T01:00:15;96051.22;;;2.59;56.84
23677;BME280;31493;49.058;12.190;2023-04-07T01:02:48;96046.19;;;2.80;56.63
23677;BME280;31493;49.058;12.190;2023-04-07T01:05:24;96055.91;;;2.72;56.98
23677;BME280;31493;49.058;12.190;2023-04-07T01:07:57;96049.38;;;2.63;57.26
23677;BME280;31493;49.058;12.190;2023-04-07T01:10:32;96039.44;;;2.79;56.48
23677;BME280;31493;49.058;12.190;2023-04-07T01:13:04;96046.34;;;2.77;57.05
23677;BME280;31493;49.058;12.190;2023-04-07T01:15:34;96048.22;;;2.72;57.02
23677;BME280;31493;49.058;12.190;2023-04-07T01:18:09;96051.16;;;2.61;56.95
23677;BME280;31493;49.058;12.190;2023-04-07T01:20:39;96041.06;;;2.34;57.97
23677;BME280;31493;49.058;12.190;2023-04-07T01:23:15;96047.16;;;2.30;57.74
23677;BME280;31493;49.058;12.190;2023-04-07T01:25:53;96033.66;;;2.27;59.44
23677;BME280;31493;49.058;12.190;2023-04-07T01:28:48;96042.88;;;2.07;59.30
23677;BME280;31493;49.058;12.190;2023-04-07T01:31:25;96036.72;;;2.13;58.79
23677;BME280;31493;49.058;12.190;2023-04-07T01:33:54;96045.19;;;2.13;58.14
23677;BME280;31493;49.058;12.190;2023-04-07T01:36:23;96033.47;;;2.08;59.17
23677;BME280;31493;49.058;12.190;2023-04-07T01:38:53;96036.56;;;2.18;59.61
23677;BME280;31493;49.058;12.190;2023-04-07T01:41:21;96035.28;;;2.29;59.00
23677;BME280;31493;49.058;12.190;2023-04-07T01:43:49;96032.44;;;2.37;59.17
23677;BME280;31493;49.058;12.190;2023-04-07T01:46:17;96029.56;;;2.23;58.82
23677;BME280;31493;49.058;12.190;2023-04-07T01:48:47;96028.75;;;2.46;58.65
23677;BME280;31493;49.058;12.190;2023-04-07T01:51:15;96027.34;;;2.37;57.86
23677;BME280;31493;49.058;12.190;2023-04-07T01:53:44;96025.75;;;2.34;58.39
23677;BME280;31493;49.058;12.190;2023-04-07T01:56:12;96023.63;;;2.22;57.69
23677;BME280;31493;49.058;12.190;2023-04-07T01:58:39;96019.50;;;2.41;57.57
23677;BME280;31493;49.058;12.190;2023-04-07T02:01:06;96019.81;;;2.34;59.78
23677;BME280;31493;49.058;12.190;2023-04-07T02:03:39;96016.34;;;2.35;59.34
23677;BME280;31493;49.058;12.190;2023-04-07T02:06:12;96011.78;;;2.43;59.53
23677;BME280;31493;49.058;12.190;2023-04-07T02:08:44;96009.19;;;1.96;58.56
23677;BME280;31493;49.058;12.190;2023-04-07T02:11:13;96009.56;;;2.10;58.91
23677;BME280;31493;49.058;12.190;2023-04-07T02:13:43;96010.84;;;1.99;59.63
23677;BME280;31493;49.058;12.190;2023-04-07T02:16:12;96016.72;;;2.01;59.72
23677;BME280;31493;49.058;12.190;2023-04-07T02:18:40;96010.00;;;1.98;60.07
23677;BME280;31493;49.058;12.190;2023-04-07T02:21:07;96014.69;;;2.10;59.06
23677;BME280;31493;49.058;12.190;2023-04-07T02:23:37;96008.44;;;1.94;60.40
23677;BME280;31493;49.058;12.190;2023-04-07T02:26:04;96011.03;;;1.93;60.36
23677;BME280;31493;49.058;12.190;2023-04-07T02:28:31;96007.78;;;2.12;59.57
23677;BME280;31493;49.058;12.190;2023-04-07T02:30:58;96003.47;;;1.89;60.84
23677;BME280;31493;49.058;12.190;2023-04-07T02:33:25;96002.59;;;1.41;61.22
23677;BME280;31493;49.058;12.190;2023-04-07T02:35:52;96010.34;;;1.38;62.13
23677;BME280;31493;49.058;12.190;2023-04-07T02:38:19;96000.03;;;1.41;61.67
23677;BME280;31493;49.058;12.190;2023-04-07T02:40:48;96013.50;;;1.19;62.65
23677;BME280;31493;49.058;12.190;2023-04-07T02:43:15;96001.69;;;1.17;62.83
23677;BME280;31493;49.058;12.190;2023-04-07T02:45:43;95997.44;;;1.17;62.75
23677;BME280;31493;49.058;12.190;2023-04-07T02:48:10;96008.09;;;1.02;64.08
23677;BME280;31493;49.058;12.190;2023-04-07T02:50:37;95992.78;;;1.02;64.62
23677;BME280;31493;49.058;12.190;2023-04-07T02:53:06;95995.41;;;1.00;64.95
23677;BME280;31493;49.058;12.190;2023-04-07T02:55:33;95995.97;;;1.08;65.57
23677;BME280;31493;49.058;12.190;2023-04-07T02:58:02;95994.00;;;1.18;64.75
23677;BME280;31493;49.058;12.190;2023-04-07T03:00:29;95987.63;;;1.05;64.79
23677;BME280;31493;49.058;12.190;2023-04-07T03:02:56;95989.78;;;1.17;64.21
23677;BME280;31493;49.058;12.190;2023-04-07T03:05:23;96002.34;;;0.95;65.17
23677;BME280;31493;49.058;12.190;2023-04-07T03:07:50;95995.03;;;0.85;64.91
23677;BME280;31493;49.058;12.190;2023-04-07T03:10:17;95993.44;;;0.82;65.73
23677;BME280;31493;49.058;12.190;2023-04-07T03:12:44;95979.75;;;0.85;65.77
23677;BME280;31493;49.058;12.190;2023-04-07T03:15:13;95993.03;;;0.68;66.33
23677;BME280;31493;49.058;12.190;2023-04-07T03:17:40;95976.75;;;0.72;66.75
23677;BME280;31493;49.058;12.190;2023-04-07T03:20:07;95985.09;;;0.77;66.79
23677;BME280;31493;49.058;12.190;2023-04-07T03:22:34;95980.50;;;1.15;64.91
23677;BME280;31493;49.058;12.190;2023-04-07T03:25:01;95971.09;;;1.17;65.43
23677;BME280;31493;49.058;12.190;2023-04-07T03:27:29;95967.66;;;1.18;63.97
23677;BME280;31493;49.058;12.190;2023-04-07T03:29:56;95975.25;;;1.19;64.22
23677;BME280;31493;49.058;12.190;2023-04-07T03:32:24;95985.09;;;0.77;65.79
23677;BME280;31493;49.058;12.190;2023-04-07T03:34:51;95977.06;;;0.33;67.84
23677;BME280;31493;49.058;12.190;2023-04-07T03:37:18;95975.00;;;0.16;69.74
23677;BME280;31493;49.058;12.190;2023-04-07T03:39:45;95970.50;;;0.26;69.81
23677;BME280;31493;49.058;12.190;2023-04-07T03:42:12;95969.94;;;0.44;70.53
23677;BME280;31493;49.058;12.190;2023-04-07T03:44:40;95968.38;;;0.95;69.55
23677;BME280;31493;49.058;12.190;2023-04-07T03:47:07;95962.00;;;1.08;67.28
23677;BME280;31493;49.058;12.190;2023-04-07T03:49:36;95972.72;;;0.91;66.30
23677;BME280;31493;49.058;12.190;2023-04-07T03:52:03;95975.31;;;0.63;67.20
23677;BME280;31493;49.058;12.190;2023-04-07T03:54:30;95990.94;;;-0.08;72.02
23677;BME280;31493;49.058;12.190;2023-04-07T03:57:00;95982.47;;;-0.40;75.30
23677;BME280;31493;49.058;12.190;2023-04-07T03:59:27;95971.75;;;-0.20;74.53
23677;BME280;31493;49.058;12.190;2023-04-07T04:01:54;95967.47;;;0.13;71.43
23677;BME280;31493;49.058;12.190;2023-04-07T04:04:21;95964.22;;;0.36;70.75
23677;BME280;31493;49.058;12.190;2023-04-07T04:06:50;95974.03;;;0.50;71.52
23677;BME280;31493;49.058;12.190;2023-04-07T04:09:17;95974.41;;;0.36;72.15
23677;BME280;31493;49.058;12.190;2023-04-07T04:11:45;95966.50;;;-0.12;73.40
23677;BME280;31493;49.058;12.190;2023-04-07T04:14:12;95967.47;;;0.13;72.14
23677;BME280;31493;49.058;12.190;2023-04-07T04:16:39;95959.53;;;0.22;70.96
23677;BME280;31493;49.058;12.190;2023-04-07T04:19:06;95957.41;;;0.37;71.07
23677;BME280;31493;49.058;12.190;2023-04-07T04:21:33;95958.22;;;0.39;70.57
23677;BME280;31493;49.058;12.190;2023-04-07T04:24:02;95965.63;;;0.46;70.08
23677;BME280;31493;49.058;12.190;2023-04-07T04:26:29;95950.34;;;0.74;69.37
23677;BME280;31493;49.058;12.190;2023-04-07T04:28:56;95955.00;;;0.60;68.82
23677;BME280;31493;49.058;12.190;2023-04-07T04:31:23;95966.09;;;0.31;70.70
23677;BME280;31493;49.058;12.190;2023-04-07T04:33:50;95954.16;;;-0.28;73.32
23677;BME280;31493;49.058;12.190;2023-04-07T04:36:18;95972.97;;;-0.02;74.41
23677;BME280;31493;49.058;12.190;2023-04-07T04:38:45;95958.00;;;0.17;74.73
23677;BME280;31493;49.058;12.190;2023-04-07T04:41:13;95963.38;;;0.37;71.48
23677;BME280;31493;49.058;12.190;2023-04-07T04:43:40;95951.94;;;0.49;71.58
23677;BME280;31493;49.058;12.190;2023-04-07T04:46:07;95963.03;;;0.48;70.17
23677;BME280;31493;49.058;12.190;2023-04-07T04:48:35;95960.09;;;0.62;69.23
23677;BME280;31493;49.058;12.190;2023-04-07T04:51:02;95955.06;;;0.87;69.92
23677;BME280;31493;49.058;12.190;2023-04-07T04:53:29;95970.63;;;0.77;69.67
23677;BME280;31493;49.058;12.190;2023-04-07T04:55:56;95972.22;;;0.82;68.76
23677;BME280;31493;49.058;12.190;2023-04-07T04:58:24;95969.00;;;0.75;68.47
23677;BME280;31493;49.058;12.190;2023-04-07T05:00:52;95967.72;;;0.62;70.36
23677;BME280;31493;49.058;12.190;2023-04-07T05:03:22;95960.69;;;0.70;68.88
23677;BME280;31493;49.058;12.190;2023-04-07T05:05:50;95960.25;;;0.84;70.29
23677;BME280;31493;49.058;12.190;2023-04-07T05:08:17;95961.13;;;0.83;69.05
23677;BME280;31493;49.058;12.190;2023-04-07T05:10:45;95956.16;;;0.78;69.33
23677;BME280;31493;49.058;12.190;2023-04-07T05:13:12;95945.34;;;0.71;69.63
23677;BME280;31493;49.058;12.190;2023-04-07T05:15:41;95952.00;;;0.75;69.28
23677;BME280;31493;49.058;12.190;2023-04-07T05:18:08;95957.50;;;0.90;68.72
23677;BME280;31493;49.058;12.190;2023-04-07T05:20:35;95944.47;;;0.99;68.45
23677;BME280;31493;49.058;12.190;2023-04-07T05:23:02;95957.34;;;0.94;67.90
23677;BME280;31493;49.058;12.190;2023-04-07T05:25:29;95944.91;;;1.12;66.91
23677;BME280;31493;49.058;12.190;2023-04-07T05:27:56;95933.88;;;1.11;67.13
23677;BME280;31493;49.058;12.190;2023-04-07T05:30:23;95934.13;;;1.28;66.70
23677;BME280;31493;49.058;12.190;2023-04-07T05:32:52;95938.09;;;1.37;65.50
23677;BME280;31493;49.058;12.190;2023-04-07T05:35:19;95939.50;;;1.46;65.39
23677;BME280;31493;49.058;12.190;2023-04-07T05:37:46;95939.75;;;1.63;63.71
23677;BME280;31493;49.058;12.190;2023-04-07T05:40:13;95933.53;;;1.70;65.26
23677;BME280;31493;49.058;12.190;2023-04-07T05:42:41;95945.41;;;1.71;64.08
23677;BME280;31493;49.058;12.190;2023-04-07T05:45:09;95940.16;;;1.76;63.61
23677;BME280;31493;49.058;12.190;2023-04-07T05:47:36;95946.25;;;1.72;63.96
23677;BME280;31493;49.058;12.190;2023-04-07T05:50:05;95951.81;;;1.83;64.37
23677;BME280;31493;49.058;12.190;2023-04-07T05:52:32;95944.97;;;1.83;63.30
23677;BME280;31493;49.058;12.190;2023-04-07T05:55:00;95949.03;;;1.89;63.40
23677;BME280;31493;49.058;12.190;2023-04-07T05:57:27;95952.59;;;1.85;63.75
23677;BME280;31493;49.058;12.190;2023-04-07T05:59:54;95956.03;;;1.84;63.77
23677;BME280;31493;49.058;12.190;2023-04-07T06:02:21;95948.72;;;1.98;63.59
23677;BME280;31493;49.058;12.190;2023-04-07T06:04:48;95954.44;;;2.05;63.33
23677;BME280;31493;49.058;12.190;2023-04-07T06:07:16;95957.75;;;2.07;62.89
23677;BME280;31493;49.058;12.190;2023-04-07T06:09:43;95954.06;;;2.15;63.45
23677;BME280;31493;49.058;12.190;2023-04-07T06:12:11;95956.31;;;2.23;62.27
23677;BME280;31493;49.058;12.190;2023-04-07T06:14:38;95956.78;;;2.33;63.20
23677;BME280;31493;49.058;12.190;2023-04-07T06:17:05;95953.91;;;2.42;61.83
23677;BME280;31493;49.058;12.190;2023-04-07T06:19:32;95947.84;;;2.45;61.54
23677;BME280;31493;49.058;12.190;2023-04-07T06:21:59;95945.88;;;2.51;61.10
23677;BME280;31493;49.058;12.190;2023-04-07T06:24:27;95954.88;;;2.61;61.48
23677;BME280;31493;49.058;12.190;2023-04-07T06:26:54;95940.84;;;2.72;60.48
23677;BME280;31493;49.058;12.190;2023-04-07T06:29:22;95938.41;;;2.68;60.37
23677;BME280;31493;49.058;12.190;2023-04-07T06:31:49;95947.03;;;2.66;60.15
23677;BME280;31493;49.058;12.190;2023-04-07T06:34:16;95942.38;;;2.76;60.19
23677;BME280;31493;49.058;12.190;2023-04-07T06:36:43;95954.00;;;2.84;60.53
23677;BME280;31493;49.058;12.190;2023-04-07T06:39:10;95958.38;;;2.81;60.36
23677;BME280;31493;49.058;12.190;2023-04-07T06:41:38;95955.28;;;2.94;60.38
23677;BME280;31493;49.058;12.190;2023-04-07T06:44:08;95957.47;;;3.04;59.79
23677;BME280;31493;49.058;12.190;2023-04-07T06:46:35;95949.97;;;2.99;59.77
23677;BME280;31493;49.058;12.190;2023-04-07T06:49:02;95950.63;;;3.04;60.20
23677;BME280;31493;49.058;12.190;2023-04-07T06:51:29;95951.22;;;3.31;60.67
23677;BME280;31493;49.058;12.190;2023-04-07T06:53:57;95951.47;;;3.25;62.11
23677;BME280;31493;49.058;12.190;2023-04-07T06:56:25;95948.31;;;3.20;62.15
23677;BME280;31493;49.058;12.190;2023-04-07T06:58:53;95947.44;;;2.99;63.21
23677;BME280;31493;49.058;12.190;2023-04-07T07:01:20;95952.88;;;3.12;65.02
23677;BME280;31493;49.058;12.190;2023-04-07T07:03:47;95951.44;;;3.27;64.11
23677;BME280;31493;49.058;12.190;2023-04-07T07:06:14;95949.25;;;3.17;64.16
23677;BME280;31493;49.058;12.190;2023-04-07T07:08:41;95943.56;;;3.31;62.96
23677;BME280;31493;49.058;12.190;2023-04-07T07:11:08;95941.13;;;3.48;63.74
23677;BME280;31493;49.058;12.190;2023-04-07T07:13:36;95953.66;;;3.55;63.76
23677;BME280;31493;49.058;12.190;2023-04-07T07:16:05;95946.13;;;3.72;63.49
23677;BME280;31493;49.058;12.190;2023-04-07T07:18:32;95942.53;;;3.76;63.37
23677;BME280;31493;49.058;12.190;2023-04-07T07:20:59;95955.84;;;3.84;61.02
23677;BME280;31493;49.058;12.190;2023-04-07T07:23:27;95955.22;;;3.98;62.26
23677;BME280;31493;49.058;12.190;2023-04-07T07:25:55;95949.38;;;4.15;62.26
23677;BME280;31493;49.058;12.190;2023-04-07T07:28:22;95959.53;;;4.16;62.21
23677;BME280;31493;49.058;12.190;2023-04-07T07:30:49;95959.78;;;4.30;60.21
23677;BME280;31493;49.058;12.190;2023-04-07T07:33:17;95957.50;;;4.43;59.82
23677;BME280;31493;49.058;12.190;2023-04-07T07:35:44;95949.28;;;4.54;59.33
23677;BME280;31493;49.058;12.190;2023-04-07T07:38:11;95960.50;;;4.70;62.94
23677;BME280;31493;49.058;12.190;2023-04-07T07:40:38;95965.78;;;4.67;59.55
23677;BME280;31493;49.058;12.190;2023-04-07T07:43:06;95961.13;;;4.75;58.37
23677;BME280;31493;49.058;12.190;2023-04-07T07:45:33;95960.38;;;4.73;57.22
23677;BME280;31493;49.058;12.190;2023-04-07T07:48:00;95967.78;;;4.79;60.00
23677;BME280;31493;49.058;12.190;2023-04-07T07:50:28;95967.44;;;4.87;60.99
23677;BME280;31493;49.058;12.190;2023-04-07T07:52:56;95964.22;;;5.18;63.29
23677;BME280;31493;49.058;12.190;2023-04-07T07:55:23;95961.28;;;5.26;62.03
23677;BME280;31493;49.058;12.190;2023-04-07T07:57:50;95956.69;;;5.32;62.56
23677;BME280;31493;49.058;12.190;2023-04-07T08:00:17;95954.38;;;5.09;59.60
23677;BME280;31493;49.058;12.190;2023-04-07T08:02:44;95956.97;;;5.26;63.00
23677;BME280;31493;49.058;12.190;2023-04-07T08:05:11;95963.34;;;5.36;62.83
23677;BME280;31493;49.058;12.190;2023-04-07T08:07:40;95957.69;;;5.30;58.91
23677;BME280;31493;49.058;12.190;2023-04-07T08:10:08;95946.41;;;5.32;57.93
23677;BME280;31493;49.058;12.190;2023-04-07T08:12:35;95966.94;;;5.15;58.19
23677;BME280;31493;49.058;12.190;2023-04-07T08:15:03;95955.09;;;5.30;59.39
23677;BME280;31493;49.058;12.190;2023-04-07T08:17:30;95951.47;;;5.34;58.39
23677;BME280;31493;49.058;12.190;2023-04-07T08:19:57;95957.19;;;5.74;58.27
23677;BME280;31493;49.058;12.190;2023-04-07T08:22:24;95947.75;;;5.74;60.17
23677;BME280;31493;49.058;12.190;2023-04-07T08:24:52;95951.28;;;5.89;60.05
23677;BME280;31493;49.058;12.190;2023-04-07T08:27:19;95959.91;;;6.05;61.02
23677;BME280;31493;49.058;12.190;2023-04-07T08:29:57;95958.78;;;5.93;59.03
23677;BME280;31493;49.058;12.190;2023-04-07T08:32:24;95958.72;;;5.78;59.46
23677;BME280;31493;49.058;12.190;2023-04-07T08:34:54;95957.97;;;5.93;61.40
23677;BME280;31493;49.058;12.190;2023-04-07T08:37:21;95966.63;;;6.08;61.50
23677;BME280;31493;49.058;12.190;2023-04-07T08:39:48;95952.47;;;6.16;61.64
23677;BME280;31493;49.058;12.190;2023-04-07T08:42:18;95957.09;;;6.26;61.41
23677;BME280;31493;49.058;12.190;2023-04-07T08:44:46;95963.84;;;5.95;61.48
23677;BME280;31493;49.058;12.190;2023-04-07T08:47:15;95946.06;;;6.08;65.61
23677;BME280;31493;49.058;12.190;2023-04-07T08:49:43;95946.09;;;6.24;64.60
23677;BME280;31493;49.058;12.190;2023-04-07T08:52:13;95952.50;;;6.32;64.10
23677;BME280;31493;49.058;12.190;2023-04-07T08:54:42;95941.78;;;6.24;65.04
23677;BME280;31493;49.058;12.190;2023-04-07T08:57:10;95949.25;;;6.29;65.14
23677;BME280;31493;49.058;12.190;2023-04-07T08:59:40;95951.91;;;5.94;62.97
23677;BME280;31493;49.058;12.190;2023-04-07T09:02:10;95951.63;;;6.16;62.87
23677;BME280;31493;49.058;12.190;2023-04-07T09:04:37;95953.56;;;6.28;61.06
23677;BME280;31493;49.058;12.190;2023-04-07T09:07:04;95956.72;;;6.49;61.07
23677;BME280;31493;49.058;12.190;2023-04-07T09:09:31;95952.66;;;6.29;58.92
23677;BME280;31493;49.058;12.190;2023-04-07T09:11:58;95952.06;;;6.24;58.08
23677;BME280;31493;49.058;12.190;2023-04-07T09:14:25;95943.53;;;6.55;59.11
23677;BME280;31493;49.058;12.190;2023-04-07T09:16:54;95948.09;;;6.34;56.07
23677;BME280;31493;49.058;12.190;2023-04-07T09:19:23;95939.47;;;6.35;55.17
23677;BME280;31493;49.058;12.190;2023-04-07T09:21:51;95939.19;;;6.87;55.10
23677;BME280;31493;49.058;12.190;2023-04-07T09:24:23;95938.66;;;6.82;52.27
23677;BME280;31493;49.058;12.190;2023-04-07T09:26:50;95927.59;;;6.96;53.47
23677;BME280;31493;49.058;12.190;2023-04-07T09:29:19;95930.31;;;7.09;52.57
23677;BME280;31493;49.058;12.190;2023-04-07T09:31:46;95932.81;;;6.94;52.37
23677;BME280;31493;49.058;12.190;2023-04-07T09:34:26;95933.84;;;7.22;51.73
23677;BME280;31493;49.058;12.190;2023-04-07T09:36:54;95929.88;;;7.16;52.83
23677;BME280;31493;49.058;12.190;2023-04-07T09:39:21;95936.25;;;7.69;56.93
23677;BME280;31493;49.058;12.190;2023-04-07T09:41:49;95930.03;;;7.88;53.28
23677;BME280;31493;49.058;12.190;2023-04-07T09:44:17;95932.56;;;7.29;50.18
23677;BME280;31493;49.058;12.190;2023-04-07T09:46:48;95927.72;;;7.69;50.33
23677;BME280;31493;49.058;12.190;2023-04-07T09:49:15;95920.69;;;7.57;49.64
23677;BME280;31493;49.058;12.190;2023-04-07T09:51:53;95917.75;;;7.63;49.50
23677;BME280;31493;49.058;12.190;2023-04-07T09:54:31;95917.22;;;8.00;50.64
23677;BME280;31493;49.058;12.190;2023-04-07T09:56:59;95913.75;;;7.87;49.87
23677;BME280;31493;49.058;12.190;2023-04-07T09:59:27;95919.06;;;8.13;50.12
23677;BME280;31493;49.058;12.190;2023-04-07T10:01:55;95912.16;;;8.13;48.70
23677;BME280;31493;49.058;12.190;2023-04-07T10:04:22;95910.50;;;8.55;49.41
23677;BME280;31493;49.058;12.190;2023-04-07T10:06:52;95920.44;;;8.47;49.84
23677;BME280;31493;49.058;12.190;2023-04-07T10:09:21;95910.91;;;9.03;51.08
23677;BME280;31493;49.058;12.190;2023-04-07T10:11:49;95905.41;;;9.47;50.70
23677;BME280;31493;49.058;12.190;2023-04-07T10:14:17;95899.81;;;9.01;48.81
23677;BME280;31493;49.058;12.190;2023-04-07T10:16:45;95903.97;;;9.81;48.48
23677;BME280;31493;49.058;12.190;2023-04-07T10:19:13;95901.50;;;9.92;51.57
23677;BME280;31493;49.058;12.190;2023-04-07T10:21:42;95899.56;;;10.58;52.12
23677;BME280;31493;49.058;12.190;2023-04-07T10:24:25;95889.88;;;10.73;53.64
23677;BME280;31493;49.058;12.190;2023-04-07T10:27:00;95907.38;;;10.20;46.80
23677;BME280;31493;49.058;12.190;2023-04-07T10:29:33;95885.25;;;10.65;47.53
23677;BME280;31493;49.058;12.190;2023-04-07T10:32:03;95896.28;;;10.56;48.95
23677;BME280;31493;49.058;12.190;2023-04-07T10:34:54;95890.28;;;11.03;48.19
23677;BME280;31493;49.058;12.190;2023-04-07T10:37:24;95893.00;;;11.37;47.37
23677;BME280;31493;49.058;12.190;2023-04-07T10:40:28;95895.81;;;11.34;45.37
23677;BME280;31493;49.058;12.190;2023-04-07T10:42:55;95892.47;;;10.97;43.66
23677;BME280;31493;49.058;12.190;2023-04-07T10:45:53;95898.41;;;11.10;43.58
23677;BME280;31493;49.058;12.190;2023-04-07T10:48:21;95894.09;;;10.87;44.19
23677;BME280;31493;49.058;12.190;2023-04-07T10:51:13;95894.53;;;10.18;39.87
23677;BME280;31493;49.058;12.190;2023-04-07T10:57:08;95897.06;;;11.17;43.59
23677;BME280;31493;49.058;12.190;2023-04-07T10:59:38;95890.69;;;11.21;41.60
23677;BME280;31493;49.058;12.190;2023-04-07T11:02:33;95887.91;;;11.00;42.81
23677;BME280;31493;49.058;12.190;2023-04-07T11:05:01;95892.19;;;11.37;42.58
23677;BME280;31493;49.058;12.190;2023-04-07T11:07:49;95882.38;;;11.40;42.82
23677;BME280;31493;49.058;12.190;2023-04-07T11:10:16;95879.03;;;11.62;45.12
23677;BME280;31493;49.058;12.190;2023-04-07T11:13:05;95886.09;;;11.49;43.01
23677;BME280;31493;49.058;12.190;2023-04-07T11:15:33;95888.44;;;11.52;38.68
23677;BME280;31493;49.058;12.190;2023-04-07T11:18:08;95886.56;;;11.19;39.78
23677;BME280;31493;49.058;12.190;2023-04-07T11:20:40;95887.41;;;11.54;41.90
23677;BME280;31493;49.058;12.190;2023-04-07T11:23:07;95889.78;;;11.34;39.98
23677;BME280;31493;49.058;12.190;2023-04-07T11:25:35;95887.94;;;11.47;38.36
23677;BME280;31493;49.058;12.190;2023-04-07T11:28:04;95878.03;;;11.87;42.25
23677;BME280;31493;49.058;12.190;2023-04-07T11:30:31;95881.97;;;11.57;40.44
23677;BME280;31493;49.058;12.190;2023-04-07T11:32:58;95890.09;;;11.53;36.44
23677;BME280;31493;49.058;12.190;2023-04-07T11:35:25;95885.53;;;11.68;35.33
23677;BME280;31493;49.058;12.190;2023-04-07T11:37:56;95880.16;;;11.36;38.93
23677;BME280;31493;49.058;12.190;2023-04-07T11:40:35;95875.53;;;11.74;36.36
23677;BME280;31493;49.058;12.190;2023-04-07T11:43:14;95884.44;;;11.48;36.76
23677;BME280;31493;49.058;12.190;2023-04-07T11:45:42;95874.91;;;11.71;37.78
23677;BME280;31493;49.058;12.190;2023-04-07T11:48:28;95888.59;;;11.62;37.04
23677;BME280;31493;49.058;12.190;2023-04-07T11:50:55;95878.59;;;11.68;35.73
23677;BME280;31493;49.058;12.190;2023-04-07T11:53:26;95893.13;;;11.36;37.55
23677;BME280;31493;49.058;12.190;2023-04-07T11:56:04;95887.13;;;11.46;36.64
23677;BME280;31493;49.058;12.190;2023-04-07T11:58:34;95880.78;;;11.15;34.76
23677;BME280;31493;49.058;12.190;2023-04-07T12:01:02;95886.56;;;11.19;38.03
23677;BME280;31493;49.058;12.190;2023-04-07T12:03:31;95876.97;;;11.32;39.40
23677;BME280;31493;49.058;12.190;2023-04-07T12:05:59;95872.25;;;11.37;38.53
23677;BME280;31493;49.058;12.190;2023-04-07T12:08:39;95882.06;;;11.45;38.26
23677;BME280;31493;49.058;12.190;2023-04-07T12:11:06;95876.22;;;11.19;37.78
23677;BME280;31493;49.058;12.190;2023-04-07T12:13:35;95874.28;;;11.45;40.25
23677;BME280;31493;49.058;12.190;2023-04-07T12:16:03;95876.78;;;11.22;40.07
23677;BME280;31493;49.058;12.190;2023-04-07T12:18:30;95874.72;;;11.03;36.77
23677;BME280;31493;49.058;12.190;2023-04-07T12:20:58;95877.66;;;10.99;38.35
23677;BME280;31493;49.058;12.190;2023-04-07T12:23:25;95881.28;;;10.96;35.98
23677;BME280;31493;49.058;12.190;2023-04-07T12:25:52;95869.59;;;10.91;37.56
23677;BME280;31493;49.058;12.190;2023-04-07T12:28:19;95873.31;;;10.75;37.97
23677;BME280;31493;49.058;12.190;2023-04-07T12:30:47;95867.38;;;10.62;38.22
23677;BME280;31493;49.058;12.190;2023-04-07T12:33:14;95874.56;;;10.70;39.03
23677;BME280;31493;49.058;12.190;2023-04-07T12:35:41;95874.56;;;10.70;37.37
23677;BME280;31493;49.058;12.190;2023-04-07T12:38:08;95870.78;;;10.87;39.83
23677;BME280;31493;49.058;12.190;2023-04-07T12:40:35;95870.72;;;10.75;37.94
23677;BME280;31493;49.058;12.190;2023-04-07T12:43:03;95881.13;;;10.63;37.29
23677;BME280;31493;49.058;12.190;2023-04-07T12:45:30;95876.50;;;10.42;36.11
23677;BME280;31493;49.058;12.190;2023-04-07T12:47:59;95876.78;;;10.63;39.50
23677;BME280;31493;49.058;12.190;2023-04-07T12:50:26;95873.88;;;10.55;39.75
23677;BME280;31493;49.058;12.190;2023-04-07T12:52:54;95869.50;;;10.44;39.43
23677;BME280;31493;49.058;12.190;2023-04-07T12:55:21;95867.81;;;10.56;38.96
23677;BME280;31493;49.058;12.190;2023-04-07T12:57:48;95872.94;;;10.69;37.63
23677;BME280;31493;49.058;12.190;2023-04-07T13:00:15;95866.63;;;10.60;35.43
23677;BME280;31493;49.058;12.190;2023-04-07T13:02:42;95866.56;;;11.21;38.55
23677;BME280;31493;49.058;12.190;2023-04-07T13:05:10;95876.91;;;11.21;36.78
23677;BME280;31493;49.058;12.190;2023-04-07T13:07:38;95867.31;;;11.45;38.68
23677;BME280;31493;49.058;12.190;2023-04-07T13:10:06;95867.84;;;11.62;36.17